Time;durP1;ratioP1;P1;durP2;ratioP2;P2;SDS_P1;SDS_P2;PMS_P1;PMS_P2;Temp;Humidity;BMP_temperature;BMP_pressure;BME280_temperature;BME280_humidity;BME280_pressure;Samples;Min_cycle;Max_cycle;Signal;HPM_P1;HPM_P2
2022/11/14 00:01:53;;;;;;;75.05;47.17;;;;;;;2.91;100.00;101473.03;5091377;28;20028;-44
2022/11/14 00:04:18;;;;;;;65.80;43.95;;;;;;;2.92;100.00;101477.34;5092308;28;20089;-45
2022/11/14 00:06:43;;;;;;;68.60;45.13;;;;;;;2.92;100.00;101473.13;5091354;28;20052;-46
2022/11/14 00:09:09;;;;;;;69.28;45.35;;;;;;;2.91;100.00;101473.88;5092817;28;20035;-47
2022/11/14 00:11:34;;;;;;;60.47;41.72;;;;;;;2.90;100.00;101471.25;5095710;28;20540;-47
2022/11/14 00:13:59;;;;;;;67.07;43.15;;;;;;;2.88;100.00;101462.59;5094959;28;20133;-46
2022/11/14 00:16:24;;;;;;;59.45;41.85;;;;;;;2.96;100.00;101466.59;5095811;28;20040;-47
2022/11/14 00:18:50;;;;;;;69.15;41.70;;;;;;;2.95;100.00;101468.22;5095379;28;20020;-48
2022/11/14 00:21:15;;;;;;;61.10;40.60;;;;;;;2.93;100.00;101464.72;5094862;28;20024;-47
2022/11/14 00:23:40;;;;;;;63.08;41.25;;;;;;;2.84;100.00;101463.16;5095505;28;20020;-45
2022/11/14 00:26:05;;;;;;;61.13;39.67;;;;;;;2.94;100.00;101461.41;5095419;28;20023;-46
2022/11/14 00:28:31;;;;;;;60.58;39.80;;;;;;;2.93;100.00;101462.16;5094917;28;20029;-47
2022/11/14 00:30:56;;;;;;;61.45;39.78;;;;;;;2.93;100.00;101458.72;5095283;28;20024;-46
2022/11/14 00:33:21;;;;;;;64.03;39.70;;;;;;;2.96;100.00;101448.75;5095294;28;20032;-46
2022/11/14 00:35:52;;;;;;;58.67;39.65;;;;;;;2.99;100.00;101451.50;5094593;28;20082;-45
2022/11/14 00:38:17;;;;;;;56.78;37.05;;;;;;;2.90;100.00;101446.66;5095529;28;20102;-44
2022/11/14 00:40:42;;;;;;;56.08;35.47;;;;;;;2.91;100.00;101452.66;5094969;28;20040;-45
2022/11/14 00:43:07;;;;;;;55.03;36.30;;;;;;;3.03;100.00;101448.41;5094623;28;20024;-43
2022/11/14 00:45:33;;;;;;;56.40;37.25;;;;;;;2.95;100.00;101444.44;5095031;28;20052;-46
2022/11/14 00:47:58;;;;;;;58.47;36.40;;;;;;;2.84;100.00;101451.34;5095040;28;20020;-44
2022/11/14 00:50:23;;;;;;;52.25;36.30;;;;;;;2.83;100.00;101449.56;5094652;28;20043;-47
2022/11/14 00:52:48;;;;;;;57.67;36.53;;;;;;;2.83;100.00;101447.03;5094763;28;20035;-43
2022/11/14 00:55:14;;;;;;;55.53;35.92;;;;;;;2.75;100.00;101441.38;5095186;28;20681;-46
2022/11/14 00:57:39;;;;;;;52.03;33.95;;;;;;;2.69;100.00;101442.63;5094051;28;20031;-47
2022/11/14 01:00:05;;;;;;;53.75;35.05;;;;;;;2.65;100.00;101436.41;5094940;28;20036;-46
2022/11/14 01:02:30;;;;;;;53.55;34.50;;;;;;;2.73;100.00;101426.78;5094866;28;20020;-44
2022/11/14 01:04:56;;;;;;;50.05;33.75;;;;;;;2.60;100.00;101427.56;5093964;28;20028;-46
2022/11/14 01:07:21;;;;;;;50.20;33.63;;;;;;;2.49;100.00;101420.81;5094990;28;20073;-44
2022/11/14 01:09:46;;;;;;;56.38;32.67;;;;;;;2.55;100.00;101419.59;5094486;28;20085;-43
2022/11/14 01:12:12;;;;;;;55.10;36.22;;;;;;;2.51;100.00;101412.53;5094043;28;20490;-48
2022/11/14 01:14:39;;;;;;;49.13;33.75;;;;;;;2.46;100.00;101417.28;5094355;28;20067;-47
2022/11/14 01:17:05;;;;;;;52.22;32.40;;;;;;;2.26;100.00;101413.31;5093812;28;20024;-45
2022/11/14 01:19:30;;;;;;;51.50;33.58;;;;;;;2.35;100.00;101409.66;5094774;28;20031;-48
2022/11/14 01:21:55;;;;;;;46.78;32.63;;;;;;;2.17;100.00;101405.03;5094128;28;20348;-43
2022/11/14 01:24:21;;;;;;;45.33;31.27;;;;;;;2.06;100.00;101395.72;5093852;28;20082;-45
2022/11/14 01:26:46;;;;;;;47.15;31.00;;;;;;;1.94;100.00;101396.59;5094150;28;20102;-46
2022/11/14 01:29:11;;;;;;;49.47;32.90;;;;;;;2.03;100.00;101382.78;5094383;28;20042;-44
2022/11/14 01:31:36;;;;;;;52.40;34.45;;;;;;;1.95;100.00;101382.22;5093209;28;20035;-47
2022/11/14 01:34:02;;;;;;;48.65;32.17;;;;;;;1.98;100.00;101372.28;5094560;28;20538;-43
2022/11/14 01:36:27;;;;;;;52.65;34.92;;;;;;;2.00;100.00;101368.19;5094180;28;20020;-45
2022/11/14 01:38:53;;;;;;;53.33;34.08;;;;;;;2.10;100.00;101364.66;5093304;28;20050;-47
2022/11/14 01:41:19;;;;;;;52.47;35.67;;;;;;;2.18;100.00;101366.09;5094255;28;20026;-44
2022/11/14 01:43:44;;;;;;;48.85;32.78;;;;;;;2.20;100.00;101367.09;5093947;28;20111;-46
2022/11/14 01:46:22;;;;;;;52.60;33.90;;;;;;;2.28;100.00;101362.56;5093004;28;20488;-44
2022/11/14 01:48:55;;;;;;;58.15;34.22;;;;;;;2.36;100.00;101370.72;5093942;28;20039;-46
2022/11/14 01:51:44;;;;;;;50.42;32.80;;;;;;;2.49;100.00;101360.63;5094070;28;20020;-45
2022/11/14 01:54:15;;;;;;;49.80;33.60;;;;;;;2.49;100.00;101363.19;5093169;28;20032;-44
2022/11/14 01:56:56;;;;;;;52.92;32.78;;;;;;;2.55;100.00;101353.44;5093501;28;20099;-46
2022/11/14 01:59:26;;;;;;;46.60;32.60;;;;;;;2.54;100.00;101366.94;5093061;28;20484;-46
2022/11/14 02:01:55;;;;;;;52.78;33.35;;;;;;;2.53;100.00;101359.19;5093695;28;20081;-46
2022/11/14 02:04:25;;;;;;;49.95;33.10;;;;;;;2.43;100.00;101353.47;5093921;28;20024;-45
2022/11/14 02:06:56;;;;;;;52.17;33.95;;;;;;;2.55;100.00;101355.97;5092723;28;20024;-44
2022/11/14 02:09:21;;;;;;;53.08;33.78;;;;;;;2.62;100.00;101360.75;5093867;28;20030;-45
2022/11/14 02:11:47;;;;;;;47.42;32.55;;;;;;;2.63;100.00;101348.88;5093460;28;20024;-46
2022/11/14 02:14:12;;;;;;;49.00;32.53;;;;;;;2.51;100.00;101356.56;5093245;28;20439;-46
2022/11/14 02:16:40;;;;;;;48.67;32.78;;;;;;;2.58;100.00;101350.22;5093359;28;20467;-47
2022/11/14 02:19:06;;;;;;;50.75;31.70;;;;;;;2.35;100.00;101338.44;5093530;28;20028;-43
2022/11/14 02:21:31;;;;;;;48.88;32.55;;;;;;;2.31;100.00;101337.31;5092559;28;20371;-47
2022/11/14 02:23:57;;;;;;;49.05;33.47;;;;;;;2.34;100.00;101341.75;5093064;28;20031;-45
2022/11/14 02:26:22;;;;;;;51.85;33.47;;;;;;;2.30;100.00;101343.22;5093495;28;20031;-44
2022/11/14 02:28:48;;;;;;;51.25;34.30;;;;;;;2.24;100.00;101350.41;5092598;28;20024;-46
2022/11/14 02:31:14;;;;;;;53.45;35.83;;;;;;;2.13;100.00;101342.88;5093244;28;20483;-43
2022/11/14 02:33:40;;;;;;;55.42;34.60;;;;;;;2.15;100.00;101335.38;5092459;28;20028;-46
2022/11/14 02:36:06;;;;;;;48.13;32.95;;;;;;;2.11;100.00;101339.34;5092487;28;20024;-44
2022/11/14 02:38:31;;;;;;;50.65;34.00;;;;;;;2.17;100.00;101344.00;5093216;28;20028;-48
2022/11/14 02:40:59;;;;;;;58.35;33.95;;;;;;;2.09;100.00;101340.00;5092999;28;20483;-46
2022/11/14 02:43:24;;;;;;;49.03;32.33;;;;;;;2.03;100.00;101335.38;5092368;28;20464;-44
2022/11/14 02:45:49;;;;;;;52.20;32.88;;;;;;;1.89;100.00;101343.66;5092600;28;20127;-44
2022/11/14 02:48:15;;;;;;;46.65;31.85;;;;;;;1.79;100.00;101339.56;5093004;28;20043;-44
2022/11/14 02:50:40;;;;;;;45.17;32.05;;;;;;;1.79;100.00;101335.34;5092098;28;20042;-44
2022/11/14 02:53:05;;;;;;;49.90;32.88;;;;;;;1.67;100.00;101341.22;5092927;28;20024;-46
2022/11/14 02:55:31;;;;;;;51.50;34.47;;;;;;;1.59;100.00;101330.50;5092457;28;20434;-44
2022/11/14 02:57:56;;;;;;;51.25;33.08;;;;;;;1.57;100.00;101327.81;5092841;28;20024;-46
2022/11/14 03:00:21;;;;;;;48.25;34.00;;;;;;;1.53;100.00;101325.84;5093065;28;20031;-44
2022/11/14 03:02:47;;;;;;;45.42;32.83;;;;;;;1.45;100.00;101322.72;5091966;28;20821;-45
2022/11/14 03:05:12;;;;;;;52.13;33.78;;;;;;;1.36;100.00;101316.97;5092996;28;20016;-46
2022/11/14 03:07:37;;;;;;;44.67;31.40;;;;;;;1.30;100.00;101316.50;5092544;28;20024;-43
2022/11/14 03:10:03;;;;;;;50.80;34.97;;;;;;;1.33;100.00;101315.84;5092075;28;20039;-44
2022/11/14 03:12:29;;;;;;;56.78;33.97;;;;;;;1.19;100.00;101313.19;5092718;28;20433;-48
2022/11/14 03:14:54;;;;;;;54.95;36.47;;;;;;;1.21;100.00;101313.28;5092699;28;20460;-46
2022/11/14 03:17:20;;;;;;;52.05;36.13;;;;;;;1.21;100.00;101310.75;5091951;28;20111;-46
2022/11/14 03:19:45;;;;;;;54.70;35.47;;;;;;;1.17;100.00;101311.28;5092446;28;20472;-43
2022/11/14 03:22:10;;;;;;;54.03;36.95;;;;;;;1.11;100.00;101306.63;5092760;28;20081;-47
2022/11/14 03:24:36;;;;;;;53.33;35.13;;;;;;;1.04;100.00;101299.34;5091964;28;20028;-48
2022/11/14 03:27:01;;;;;;;53.67;35.88;;;;;;;0.98;100.00;101307.34;5092708;28;20086;-43
2022/11/14 03:29:26;;;;;;;54.38;35.80;;;;;;;0.94;100.00;101301.19;5092874;28;20020;-42
2022/11/14 03:31:51;;;;;;;51.70;35.75;;;;;;;0.95;100.00;101308.00;5091635;28;20024;-44
2022/11/14 03:34:17;;;;;;;52.38;36.45;;;;;;;0.89;100.00;101302.50;5092728;28;20024;-46
2022/11/14 03:36:42;;;;;;;59.60;37.72;;;;;;;0.81;100.00;101299.38;5092206;28;20459;-44
2022/11/14 03:39:08;;;;;;;64.95;40.28;;;;;;;0.76;100.00;101294.69;5092025;28;20020;-45
2022/11/14 03:41:33;;;;;;;57.47;38.53;;;;;;;0.84;100.00;101287.66;5092676;28;20384;-43
2022/11/14 03:43:58;;;;;;;55.75;37.47;;;;;;;0.78;100.00;101288.09;5092761;28;20020;-47
2022/11/14 03:46:24;;;;;;;66.32;40.20;;;;;;;0.80;100.00;101289.97;5095433;28;20051;-46
2022/11/14 03:48:49;;;;;;;55.85;38.20;;;;;;;0.76;100.00;101294.69;5096145;28;20016;-45
2022/11/14 03:51:14;;;;;;;54.85;37.78;;;;;;;0.71;100.00;101294.38;5096361;28;20020;-45
2022/11/14 03:53:39;;;;;;;57.53;40.85;;;;;;;0.74;100.00;101296.25;5104430;28;20032;-45
2022/11/14 03:56:05;;;;;;;56.47;39.58;;;;;;;0.76;100.00;101289.63;5116831;28;20032;-45
2022/11/14 03:58:30;;;;;;;62.75;41.45;;;;;;;0.74;100.00;101292.06;5116599;28;20024;-46
2022/11/14 04:00:55;;;;;;;67.30;43.83;;;;;;;0.77;100.00;101276.16;5115513;28;20467;-44
2022/11/14 04:03:22;;;;;;;63.72;41.05;;;;;;;0.77;100.00;101282.13;5116512;28;20019;-46
2022/11/14 04:05:48;;;;;;;71.87;47.00;;;;;;;0.89;100.00;101277.13;5115376;28;20034;-44
2022/11/14 04:08:13;;;;;;;75.75;48.95;;;;;;;0.99;100.00;101268.53;5116365;28;20035;-46
2022/11/14 04:10:40;;;;;;;73.32;46.80;;;;;;;0.92;100.00;101271.38;5116189;28;20043;-46
2022/11/14 04:13:05;;;;;;;70.70;45.13;;;;;;;0.86;100.00;101266.72;5116100;28;20023;-46
2022/11/14 04:15:31;;;;;;;70.78;44.33;;;;;;;0.87;100.00;101258.34;5116382;28;20027;-45
2022/11/14 04:17:56;;;;;;;64.00;42.17;;;;;;;0.83;100.00;101256.34;5115944;28;20024;-43
2022/11/14 04:20:21;;;;;;;59.97;39.63;;;;;;;0.70;100.00;101258.69;5115361;28;20023;-47
2022/11/14 04:22:46;;;;;;;62.08;40.72;;;;;;;0.64;100.00;101260.00;5116049;28;20424;-43
2022/11/14 04:25:12;;;;;;;66.88;41.78;;;;;;;0.72;100.00;101252.09;5116049;28;20027;-43
2022/11/14 04:27:37;;;;;;;59.75;38.13;;;;;;;0.62;100.00;101251.41;5115104;28;20482;-44
2022/11/14 04:30:04;;;;;;;67.85;42.35;;;;;;;0.70;100.00;101248.56;5116166;28;20028;-47
2022/11/14 04:32:29;;;;;;;65.35;41.28;;;;;;;0.63;100.00;101252.28;5115901;28;20034;-43
2022/11/14 04:34:54;;;;;;;70.80;43.95;;;;;;;0.66;100.00;101255.06;5114877;28;20384;-46
2022/11/14 04:37:20;;;;;;;68.00;42.58;;;;;;;0.54;100.00;101249.94;5115809;28;20081;-46
2022/11/14 04:39:45;;;;;;;63.80;42.03;;;;;;;0.54;100.00;101249.94;5115722;28;20485;-46
2022/11/14 04:42:10;;;;;;;68.43;44.92;;;;;;;0.59;100.00;101253.69;5115146;28;20023;-44
2022/11/14 04:44:35;;;;;;;65.47;44.40;;;;;;;0.56;100.00;101245.88;5115389;28;20386;-45
2022/11/14 04:47:01;;;;;;;67.75;42.80;;;;;;;0.53;100.00;101240.56;5115860;28;20034;-46
2022/11/14 04:49:26;;;;;;;69.22;43.25;;;;;;;0.57;100.00;101242.56;5114886;28;20366;-42
2022/11/14 04:51:51;;;;;;;72.82;45.42;;;;;;;0.65;100.00;101245.69;5115437;28;20065;-46
2022/11/14 04:54:16;;;;;;;73.47;46.92;;;;;;;0.72;100.00;101241.97;5115473;28;20047;-43
2022/11/14 04:56:42;;;;;;;70.50;45.58;;;;;;;0.65;100.00;101246.56;5113959;28;20027;-45
2022/11/14 04:59:07;;;;;;;69.60;44.40;;;;;;;0.72;100.00;101241.97;5115478;28;20073;-44
2022/11/14 05:01:32;;;;;;;75.93;44.38;;;;;;;0.69;100.00;101239.19;5115414;28;20032;-44
2022/11/14 05:03:58;;;;;;;69.97;45.65;;;;;;;0.79;100.00;101236.59;5114270;28;20023;-46
2022/11/14 05:06:23;;;;;;;79.00;49.30;;;;;;;0.82;100.00;101245.28;5115163;28;20024;-45
2022/11/14 05:08:48;;;;;;;76.38;45.80;;;;;;;0.80;100.00;101241.78;5115198;28;20485;-45
2022/11/14 05:11:15;;;;;;;74.47;47.70;;;;;;;0.85;100.00;101243.78;5114599;28;20080;-44
2022/11/14 05:13:41;;;;;;;71.57;44.35;;;;;;;0.85;100.00;101228.53;5114738;28;20510;-43
2022/11/14 05:16:06;;;;;;;76.05;45.63;;;;;;;0.88;100.00;101229.66;5114766;28;20115;-44
2022/11/14 05:18:31;;;;;;;70.85;43.15;;;;;;;0.79;100.00;101226.44;5114689;28;20073;-47
2022/11/14 05:20:58;;;;;;;70.15;44.80;;;;;;;0.85;100.00;101223.47;5114694;28;20391;-47
2022/11/14 05:23:24;;;;;;;71.65;45.53;;;;;;;0.93;100.00;101220.75;5114276;28;20038;-43
2022/11/14 05:26:00;;;;;;;69.32;42.83;;;;;;;0.76;100.00;101216.03;5114434;28;20028;-46
2022/11/14 05:28:25;;;;;;;71.65;44.03;;;;;;;0.87;100.00;101210.13;5114897;28;20392;-46
2022/11/14 05:30:51;;;;;;;66.72;43.67;;;;;;;0.76;100.00;101208.44;5113751;28;20105;-48
2022/11/14 05:33:16;;;;;;;72.10;43.42;;;;;;;0.81;100.00;101213.09;5114632;28;20027;-45
2022/11/14 05:35:41;;;;;;;69.85;44.20;;;;;;;0.83;100.00;101213.22;5114612;28;20368;-47
2022/11/14 05:38:07;;;;;;;69.68;44.47;;;;;;;0.83;100.00;101208.13;5114022;28;20027;-43
2022/11/14 05:40:32;;;;;;;66.53;43.90;;;;;;;0.80;100.00;101208.78;5114655;28;20394;-44
2022/11/14 05:42:57;;;;;;;64.82;41.35;;;;;;;0.73;100.00;101210.75;5114363;28;20153;-42
2022/11/14 05:45:22;;;;;;;65.75;40.63;;;;;;;0.65;100.00;101205.97;5113645;28;20043;-45
2022/11/14 05:47:48;;;;;;;64.05;39.80;;;;;;;0.65;100.00;101205.97;5113861;28;20382;-47
2022/11/14 05:50:13;;;;;;;54.53;38.60;;;;;;;0.62;100.00;101199.78;5114357;28;20020;-46
2022/11/14 05:52:38;;;;;;;57.17;37.25;;;;;;;0.47;100.00;101197.00;5113256;28;20041;-46
2022/11/14 05:55:04;;;;;;;62.72;39.85;;;;;;;0.59;100.00;101192.81;5114431;28;20027;-48
2022/11/14 05:57:29;;;;;;;70.13;42.63;;;;;;;0.60;100.00;101196.25;5114180;28;20108;-46
2022/11/14 05:59:56;;;;;;;65.32;41.40;;;;;;;0.63;100.00;101191.41;5113158;28;20023;-46
2022/11/14 06:02:21;;;;;;;58.45;39.88;;;;;;;0.59;100.00;101197.91;5114102;28;20051;-47
2022/11/14 06:04:46;;;;;;;58.67;38.05;;;;;;;0.47;100.00;101199.53;5113843;28;20062;-44
2022/11/14 06:07:12;;;;;;;58.47;36.42;;;;;;;0.38;100.00;101184.50;5112453;28;20035;-46
2022/11/14 06:09:37;;;;;;;61.90;38.38;;;;;;;0.45;100.00;101196.88;5113852;28;20115;-47
2022/11/14 06:12:05;;;;;;;54.45;37.58;;;;;;;0.37;100.00;101199.59;5113933;28;20027;-45
2022/11/14 06:14:30;;;;;;;66.38;40.80;;;;;;;0.43;100.00;101202.59;5113289;28;20095;-44
2022/11/14 06:16:55;;;;;;;69.97;41.78;;;;;;;0.45;100.00;101203.59;5113692;28;20055;-47
2022/11/14 06:19:20;;;;;;;64.78;40.38;;;;;;;0.47;100.00;101199.53;5113831;28;20016;-43
2022/11/14 06:21:46;;;;;;;64.32;38.20;;;;;;;0.37;100.00;101205.53;5112958;28;20089;-43
2022/11/14 06:24:11;;;;;;;66.95;40.70;;;;;;;0.42;100.00;101200.81;5113872;28;20402;-44
2022/11/14 06:26:36;;;;;;;68.85;43.25;;;;;;;0.55;100.00;101208.59;5112655;28;20076;-44
2022/11/14 06:29:02;;;;;;;69.82;42.88;;;;;;;0.53;100.00;101202.53;5113722;28;20030;-46
2022/11/14 06:31:27;;;;;;;66.28;42.13;;;;;;;0.58;100.00;101198.69;5113689;28;20386;-47
2022/11/14 06:33:53;;;;;;;60.63;40.10;;;;;;;0.57;100.00;101202.00;5112638;28;20026;-44
2022/11/14 06:36:18;;;;;;;66.65;43.55;;;;;;;0.57;100.00;101206.16;5113770;28;20494;-45
2022/11/14 06:38:44;;;;;;;66.25;41.00;;;;;;;0.56;100.00;101205.28;5113373;28;20456;-47
2022/11/14 06:41:17;;;;;;;63.97;41.72;;;;;;;0.52;100.00;101198.22;5112840;28;20028;-47
2022/11/14 06:43:44;;;;;;;68.05;42.53;;;;;;;0.58;100.00;101197.78;5113238;28;20080;-44
2022/11/14 06:46:12;;;;;;;65.75;42.03;;;;;;;0.60;100.00;101196.25;5113157;28;20047;-43
2022/11/14 06:48:37;;;;;;;63.28;42.42;;;;;;;0.56;100.00;101199.34;5112145;28;20557;-45
2022/11/14 06:51:04;;;;;;;56.38;37.13;;;;;;;0.42;100.00;101193.22;5113451;28;20111;-44
2022/11/14 06:53:31;;;;;;;59.20;34.80;;;;;;;0.30;100.00;101196.59;5113591;28;20067;-47
2022/11/14 06:56:08;;;;;;;58.45;35.75;;;;;;;0.27;100.00;101203.97;5112310;28;20028;-43
2022/11/14 06:58:37;;;;;;;62.87;40.13;;;;;;;0.40;100.00;101204.88;5113258;28;20066;-43
2022/11/14 07:01:10;;;;;;;62.85;39.75;;;;;;;0.44;100.00;101214.50;5113433;28;20028;-46
2022/11/14 07:03:35;;;;;;;63.53;40.97;;;;;;;0.52;100.00;101208.38;5112177;28;20395;-44
2022/11/14 07:06:01;;;;;;;60.47;39.60;;;;;;;0.42;100.00;101213.50;5113296;28;20474;-43
2022/11/14 07:08:27;;;;;;;54.17;35.30;;;;;;;0.35;100.00;101214.69;5113307;28;20023;-45
2022/11/14 07:10:52;;;;;;;57.55;35.15;;;;;;;0.26;100.00;101212.34;5112225;28;20348;-44
2022/11/14 07:13:18;;;;;;;78.45;45.47;;;;;;;0.28;100.00;101218.38;5113100;28;20045;-46
2022/11/14 07:15:51;;;;;;;74.95;48.28;;;;;;;0.28;100.00;101220.91;5112255;28;20032;-44
2022/11/14 07:18:17;;;;;;;65.47;42.83;;;;;;;0.20;100.00;101219.47;5114042;28;20028;-47
2022/11/14 07:20:43;;;;;;;57.08;40.05;;;;;;;0.20;100.00;101224.53;5117009;28;20030;-44
2022/11/14 07:23:08;;;;;;;62.67;39.10;;;;;;;0.19;100.00;101217.69;5116667;28;20019;-45
2022/11/14 07:25:33;;;;;;;67.03;41.60;;;;;;;0.25;100.00;101217.28;5116913;28;20394;-42
2022/11/14 07:27:58;;;;;;;61.70;42.63;;;;;;;0.23;100.00;101214.59;5117017;28;20039;-44
2022/11/14 07:30:24;;;;;;;68.45;41.35;;;;;;;0.26;100.00;101224.09;5116528;28;20467;-44
2022/11/14 07:32:56;;;;;;;61.03;40.47;;;;;;;0.26;100.00;101219.03;5116818;28;20023;-46
2022/11/14 07:35:22;;;;;;;62.63;41.20;;;;;;;0.29;100.00;101215.09;5117125;28;20042;-43
2022/11/14 07:37:48;;;;;;;63.42;40.78;;;;;;;0.26;100.00;101209.78;5115954;28;20024;-44
2022/11/14 07:40:14;;;;;;;89.68;53.35;;;;;;;0.36;100.00;101208.84;5116791;28;20027;-43
2022/11/14 07:42:39;;;;;;;77.15;49.72;;;;;;;0.51;100.00;101200.66;5116465;28;20519;-43
2022/11/14 07:45:05;;;;;;;73.63;47.22;;;;;;;0.41;100.00;101197.38;5115946;28;20185;-45
2022/11/14 07:47:30;;;;;;;71.03;45.08;;;;;;;0.45;100.00;101191.81;5116705;28;20059;-47
2022/11/14 07:49:55;;;;;;;70.10;43.15;;;;;;;0.50;100.00;101194.66;5116729;28;20102;-44
2022/11/14 07:52:21;;;;;;;66.32;43.25;;;;;;;0.47;100.00;101197.84;5115949;28;20383;-42
2022/11/14 07:54:46;;;;;;;70.00;44.75;;;;;;;0.56;100.00;101199.34;5116550;28;20366;-46
2022/11/14 07:57:12;;;;;;;66.90;43.70;;;;;;;0.62;100.00;101193.06;5116571;28;20063;-45
2022/11/14 07:59:37;;;;;;;67.35;44.50;;;;;;;0.71;100.00;101202.13;5115665;28;20019;-45
2022/11/14 08:02:02;;;;;;;67.65;44.15;;;;;;;0.76;100.00;101193.22;5116751;28;20024;-42
2022/11/14 08:04:27;;;;;;;70.88;46.17;;;;;;;0.88;100.00;101193.22;5116660;28;20028;-43
2022/11/14 08:06:53;;;;;;;75.75;47.00;;;;;;;1.03;100.00;101186.75;5115314;28;20382;-43
2022/11/14 08:09:18;;;;;;;80.13;48.60;;;;;;;1.23;100.00;101188.22;5116486;28;20028;-44
2022/11/14 08:11:46;;;;;;;78.85;48.08;;;;;;;1.41;100.00;101191.19;5115894;28;20374;-43
2022/11/14 08:14:11;;;;;;;73.50;46.20;;;;;;;1.54;100.00;101174.31;5115719;28;20027;-46
2022/11/14 08:16:37;;;;;;;68.78;44.45;;;;;;;1.68;100.00;101172.72;5115768;28;20520;-43
2022/11/14 08:19:02;;;;;;;68.90;45.55;;;;;;;1.83;100.00;101175.47;5115478;28;20031;-44
2022/11/14 08:21:27;;;;;;;68.80;42.85;;;;;;;1.98;100.00;101172.34;5116210;28;20020;-43
2022/11/14 08:23:52;;;;;;;58.90;43.05;;;;;;;2.00;100.00;101171.56;5115766;28;20035;-46
2022/11/14 08:26:18;;;;;;;64.88;41.90;;;;;;;2.16;100.00;101174.41;5115214;28;20077;-42
2022/11/14 08:28:43;;;;;;;63.97;40.50;;;;;;;2.26;100.00;101169.16;5115862;28;20031;-43
2022/11/14 08:31:09;;;;;;;60.22;40.40;;;;;;;2.34;100.00;101168.78;5115188;28;20555;-45
2022/11/14 08:33:34;;;;;;;66.90;42.17;;;;;;;2.40;100.00;101170.09;5114992;28;20019;-43
2022/11/14 08:36:03;;;;;;;64.05;40.13;;;;;;;2.44;100.00;101166.97;5115801;28;20042;-45
2022/11/14 08:38:30;;;;;;;65.60;40.95;;;;;;;2.50;100.00;101165.63;5115796;28;20033;-43
2022/11/14 08:41:00;;;;;;;54.15;38.13;;;;;;;2.54;100.00;101163.38;5114674;28;20099;-44
2022/11/14 08:43:25;;;;;;;62.28;38.90;;;;;;;2.56;100.00;101159.28;5115643;28;20488;-43
2022/11/14 08:45:50;;;;;;;56.20;39.22;;;;;;;2.61;100.00;101146.88;5115120;28;20094;-46
2022/11/14 08:48:16;;;;;;;56.85;39.65;;;;;;;2.63;100.00;101143.66;5114914;28;20063;-46
2022/11/14 08:50:41;;;;;;;59.55;40.38;;;;;;;2.68;100.00;101145.63;5115633;28;20072;-46
2022/11/14 08:53:06;;;;;;;56.17;39.05;;;;;;;2.72;100.00;101148.44;5115487;28;20019;-44
2022/11/14 08:55:32;;;;;;;60.80;40.15;;;;;;;2.84;100.00;101152.59;5114613;28;20115;-45
2022/11/14 08:57:57;;;;;;;58.70;39.05;;;;;;;2.90;100.00;101143.69;5115315;28;20030;-44
2022/11/14 09:00:23;;;;;;;62.85;40.35;;;;;;;3.00;100.00;101155.38;5115367;28;20015;-43
2022/11/14 09:02:48;;;;;;;62.58;40.30;;;;;;;3.02;100.00;101142.72;5114456;28;20111;-44
2022/11/14 09:05:13;;;;;;;64.03;39.90;;;;;;;3.16;100.00;101146.16;5115571;28;20019;-45
2022/11/14 09:07:38;;;;;;;62.78;36.55;;;;;;;3.32;100.00;101145.47;5114973;28;20452;-43
2022/11/14 09:10:05;;;;;;;56.75;37.25;;;;;;;3.42;100.00;101135.09;5114291;28;20028;-46
2022/11/14 09:12:30;;;;;;;59.13;35.83;;;;;;;3.56;100.00;101139.38;5115024;28;20518;-44
2022/11/14 09:14:55;;;;;;;52.05;34.50;;;;;;;3.66;100.00;101137.44;5114816;28;20115;-43
2022/11/14 09:17:21;;;;;;;49.30;34.20;;;;;;;3.82;100.00;101135.00;5114530;28;20030;-47
2022/11/14 09:19:46;;;;;;;49.95;34.47;;;;;;;4.04;100.00;101123.56;5114787;28;20103;-44
2022/11/14 09:22:11;;;;;;;56.38;38.25;;;;;;;4.42;100.00;101125.00;5114991;28;20398;-46
2022/11/14 09:24:36;;;;;;;48.22;32.17;;;;;;;4.67;100.00;101139.19;5113914;28;20028;-46
2022/11/14 09:27:02;;;;;;;53.97;34.90;;;;;;;4.92;100.00;101127.03;5115003;28;20478;-44
2022/11/14 09:29:27;;;;;;;49.88;31.60;;;;;;;5.18;100.00;101130.19;5114265;28;20110;-47
2022/11/14 09:31:53;;;;;;;50.38;34.40;;;;;;;5.52;100.00;101116.69;5114612;28;20569;-47
2022/11/14 09:34:19;;;;;;;52.15;33.20;;;;;;;5.77;100.00;101118.00;5114768;28;20032;-47
2022/11/14 09:36:45;;;;;;;63.58;37.17;;;;;;;6.17;100.00;101120.16;5113719;28;20028;-45
2022/11/14 09:39:11;;;;;;;48.05;30.08;;;;;;;6.31;100.00;101114.88;5114521;28;20015;-46
2022/11/14 09:41:50;;;;;;;55.70;32.17;;;;;;;6.54;100.00;101110.91;5114378;28;20031;-47
2022/11/14 09:44:32;;;;;;;44.67;30.00;;;;;;;6.67;100.00;101103.03;5113629;28;20028;-44
2022/11/14 09:47:03;;;;;;;44.92;30.48;;;;;;;6.83;99.98;101098.66;5114021;28;20474;-45
2022/11/14 09:49:33;;;;;;;46.47;29.95;;;;;;;6.96;96.84;101108.72;5114318;28;20053;-47
2022/11/14 09:52:08;;;;;;;46.72;30.90;;;;;;;7.08;95.97;101110.97;5113811;28;20035;-47
2022/11/14 09:54:46;;;;;;;42.13;28.13;;;;;;;7.27;94.97;101117.88;5114280;28;20028;-44
2022/11/14 09:57:18;;;;;;;48.00;29.77;;;;;;;7.36;94.49;101122.53;5114395;28;20027;-44
2022/11/14 09:59:43;;;;;;;45.72;30.67;;;;;;;7.56;92.88;101123.47;5113342;28;20059;-44
2022/11/14 10:02:24;;;;;;;45.75;29.98;;;;;;;7.84;96.69;101110.22;5114122;28;20105;-44
2022/11/14 10:05:07;;;;;;;48.65;30.63;;;;;;;8.11;93.68;101111.38;5113306;28;20129;-47
2022/11/14 10:07:47;;;;;;;48.85;29.25;;;;;;;8.34;92.32;101114.94;5114055;28;20084;-46
2022/11/14 10:10:12;;;;;;;48.97;30.10;;;;;;;8.29;87.01;101103.56;5114175;28;20024;-46
2022/11/14 10:13:22;;;;;;;49.58;29.92;;;;;;;8.47;89.99;101108.66;5112911;28;20554;-45
2022/11/14 10:15:53;;;;;;;51.05;30.35;;;;;;;8.44;86.33;101116.22;5113583;28;20368;-47
2022/11/14 10:18:32;;;;;;;47.72;30.33;;;;;;;8.48;85.72;101115.56;5113960;28;20088;-45
2022/11/14 10:21:13;;;;;;;51.10;32.03;;;;;;;8.49;84.41;101115.63;5113000;28;20032;-47
2022/11/14 10:23:47;;;;;;;49.45;30.75;;;;;;;8.57;85.51;101109.13;5113705;28;20031;-45
2022/11/14 10:26:28;;;;;;;54.20;32.95;;;;;;;8.44;83.45;101114.50;5113024;28;20073;-44
2022/11/14 10:29:01;;;;;;;52.20;32.72;;;;;;;8.55;84.19;101104.75;5113432;28;20107;-47
2022/11/14 10:31:42;;;;;;;56.45;34.95;;;;;;;8.55;84.17;101110.75;5113567;28;20015;-46
2022/11/14 10:34:09;;;;;;;62.17;35.25;;;;;;;8.48;83.47;101106.19;5112852;28;20383;-45
2022/11/14 10:37:02;;;;;;;53.35;33.30;;;;;;;8.81;84.14;101098.09;5113302;28;20068;-47
2022/11/14 10:39:47;;;;;;;56.38;35.00;;;;;;;8.99;81.88;101103.09;5113384;28;20028;-43
2022/11/14 10:42:27;;;;;;;54.13;33.35;;;;;;;9.27;81.82;101093.03;5113683;28;20038;-43
2022/11/14 10:45:15;;;;;;;60.60;34.85;;;;;;;9.34;81.94;101089.88;5112917;28;20075;-46
2022/11/14 10:47:48;;;;;;;64.82;39.95;;;;;;;9.48;80.01;101093.84;5112225;28;20043;-44
2022/11/14 10:50:57;;;;;;;61.20;35.08;;;;;;;9.60;79.75;101090.88;5113597;28;20046;-46
2022/11/14 10:53:45;;;;;;;59.20;36.30;;;;;;;9.39;79.66;101085.78;5030392;28;20045;-45
2022/11/14 10:56:12;;;;;;;61.08;35.92;;;;;;;9.35;78.62;101086.50;5030751;28;20036;-43
2022/11/14 10:58:37;;;;;;;60.53;36.55;;;;;;;9.43;79.04;101090.22;5084617;28;20039;-46
2022/11/14 11:01:35;;;;;;;63.17;37.80;;;;;;;9.61;80.86;101082.31;5112661;28;20443;-46
2022/11/14 11:04:23;;;;;;;61.97;37.10;;;;;;;9.91;80.70;101067.97;5113255;28;20047;-45
2022/11/14 11:06:51;;;;;;;59.03;36.58;;;;;;;9.99;77.34;101063.94;5112782;28;20031;-48
2022/11/14 11:12:04;;;;;;;72.30;39.33;;;;;;;9.97;76.98;101057.88;5113601;28;19965;-46
2022/11/14 11:14:30;;;;;;;66.95;39.75;;;;;;;9.97;77.63;101060.47;5113033;28;20045;-46